Time;durP1;ratioP1;P1;durP2;ratioP2;P2;SDS_P1;SDS_P2;PMS_P1;PMS_P2;Temp;Humidity;BMP_temperature;BMP_pressure;BME280_temperature;BME280_humidity;BME280_pressure;Samples;Min_cycle;Max_cycle;Signal;HPM_P1;HPM_P2
2022/03/27 00:01:23;;;;;;;2.95;0.98;;;-2.10;99.90;;;;;;4821081;29;20127;-74
2022/03/27 00:03:50;;;;;;;0.98;0.63;;;-2.10;99.90;;;;;;4819296;29;20054;-74
2022/03/27 00:06:18;;;;;;;0.93;0.65;;;-2.20;99.90;;;;;;4816780;29;20054;-74
2022/03/27 00:08:45;;;;;;;1.17;0.90;;;-2.20;99.90;;;;;;4821146;29;20043;-74
2022/03/27 00:11:25;;;;;;;0.88;0.50;;;-2.30;99.90;;;;;;4821598;29;20069;-74
2022/03/27 00:13:53;;;;;;;0.80;0.60;;;-2.30;99.90;;;;;;4808882;29;20042;-74
2022/03/27 00:16:23;;;;;;;3.83;0.45;;;-2.30;99.90;;;;;;4822191;29;20140;-75
2022/03/27 00:18:51;;;;;;;0.50;0.50;;;-2.30;99.90;;;;;;4838035;29;20094;-75
2022/03/27 00:21:20;;;;;;;2.03;0.52;;;-2.30;99.90;;;;;;4823454;29;20049;-75
2022/03/27 00:23:48;;;;;;;1.40;0.52;;;-2.40;99.90;;;;;;4819393;29;20103;-75
2022/03/27 00:26:16;;;;;;;3.50;0.60;;;-2.30;99.90;;;;;;4814885;29;20129;-75
2022/03/27 00:28:44;;;;;;;1.05;0.70;;;-2.30;99.90;;;;;;4822620;29;20145;-75
2022/03/27 00:31:13;;;;;;;1.25;0.88;;;-2.40;99.90;;;;;;4824328;29;20104;-75
2022/03/27 00:33:44;;;;;;;4.05;0.60;;;-2.40;99.90;;;;;;4807878;29;20708;-75
2022/03/27 00:36:13;;;;;;;1.05;0.90;;;-2.50;99.90;;;;;;4807975;29;20458;-75
2022/03/27 00:38:41;;;;;;;2.00;0.70;;;-2.50;99.90;;;;;;4819400;29;20100;-75
2022/03/27 00:41:08;;;;;;;0.50;0.50;;;-2.50;99.90;;;;;;4823349;29;20058;-74
2022/03/27 00:43:36;;;;;;;0.85;0.47;;;-2.60;99.90;;;;;;4816672;29;20062;-75
2022/03/27 00:46:04;;;;;;;1.60;0.50;;;-2.70;99.90;;;;;;4813946;29;20133;-76
2022/03/27 00:48:32;;;;;;;28.63;2.20;;;-2.70;99.90;;;;;;4838501;29;20062;-75
2022/03/27 00:51:01;;;;;;;1.35;0.70;;;-2.80;99.90;;;;;;4809464;29;20169;-75
2022/03/27 00:53:28;;;;;;;2.25;0.60;;;-2.80;99.90;;;;;;4807427;29;20078;-76
2022/03/27 00:55:57;;;;;;;1.60;0.63;;;-2.70;99.90;;;;;;4823397;29;20042;-75
2022/03/27 00:58:24;;;;;;;1.95;0.88;;;-2.70;99.90;;;;;;4824267;29;20145;-75
2022/03/27 01:01:04;;;;;;;3.90;1.55;;;-2.70;99.90;;;;;;4822493;29;20133;-73
2022/03/27 01:03:32;;;;;;;0.60;0.60;;;-2.70;99.90;;;;;;4824645;29;20065;-73
2022/03/27 01:06:01;;;;;;;3.10;0.50;;;-2.80;99.90;;;;;;4824461;29;20046;-74
2022/03/27 01:11:18;;;;;;;0.50;0.32;;;-2.80;99.90;;;;;;4822681;29;20054;-75
2022/03/27 01:13:49;;;;;;;1.35;0.70;;;-2.80;99.90;;;;;;4822996;29;20089;-75
2022/03/27 01:16:33;;;;;;;1.15;0.73;;;-2.70;99.90;;;;;;4824163;29;20145;-75
2022/03/27 01:19:02;;;;;;;0.60;0.50;;;-2.70;99.90;;;;;;4820855;29;20063;-75
2022/03/27 01:21:30;;;;;;;0.45;0.45;;;-2.70;99.90;;;;;;4822692;29;20054;-75
2022/03/27 01:23:58;;;;;;;2.60;0.63;;;-2.60;99.90;;;;;;4822560;29;20061;-75
2022/03/27 01:26:25;;;;;;;0.60;0.52;;;-2.60;99.90;;;;;;4824205;29;20508;-75
2022/03/27 01:28:53;;;;;;;2.72;0.73;;;-2.50;99.90;;;;;;4807814;29;20078;-75
2022/03/27 01:31:20;;;;;;;0.77;0.50;;;-2.50;99.90;;;;;;4804271;29;20051;-75
2022/03/27 01:33:48;;;;;;;0.40;0.40;;;-2.60;99.90;;;;;;4821385;29;20058;-74
2022/03/27 01:36:23;;;;;;;0.60;0.50;;;-2.60;99.90;;;;;;4820021;29;20342;-76
2022/03/27 01:38:53;;;;;;;1.13;0.40;;;-2.70;99.90;;;;;;4826755;29;20046;-76
2022/03/27 01:41:21;;;;;;;1.08;0.50;;;-2.80;99.90;;;;;;4805372;29;20051;-74
2022/03/27 01:43:49;;;;;;;0.70;0.45;;;-2.90;99.90;;;;;;4823678;29;20046;-71
2022/03/27 01:46:18;;;;;;;2.30;0.40;;;-3.00;99.90;;;;;;4822705;29;20069;-70
2022/03/27 01:48:45;;;;;;;0.95;0.60;;;-3.10;99.90;;;;;;4823505;29;20075;-71
2022/03/27 01:51:13;;;;;;;0.50;0.50;;;-3.20;99.90;;;;;;4836882;29;20153;-71
2022/03/27 01:53:41;;;;;;;0.68;0.50;;;-3.30;99.90;;;;;;4822305;29;20415;-71
2022/03/27 01:56:10;;;;;;;0.95;0.60;;;-3.30;99.90;;;;;;4795601;29;20472;-71
2022/03/27 01:58:39;;;;;;;0.45;0.45;;;-3.30;99.90;;;;;;4823624;29;20440;-70
2022/03/27 02:01:07;;;;;;;0.73;0.52;;;-3.30;99.90;;;;;;4819053;29;20051;-71
2022/03/27 02:03:35;;;;;;;0.45;0.40;;;-3.30;99.90;;;;;;4818959;29;20173;-72
2022/03/27 02:06:05;;;;;;;0.38;0.38;;;-3.40;99.90;;;;;;4807335;29;20145;-71
2022/03/27 02:08:33;;;;;;;0.40;0.40;;;-3.40;99.90;;;;;;4835701;29;20082;-71
2022/03/27 02:11:01;;;;;;;1.05;0.50;;;-3.40;99.90;;;;;;4823488;29;20160;-69
2022/03/27 02:13:30;;;;;;;0.50;0.50;;;-3.40;99.90;;;;;;4822188;29;20076;-70
2022/03/27 02:15:58;;;;;;;0.40;0.40;;;-3.40;99.90;;;;;;4806454;29;20051;-70
2022/03/27 02:18:27;;;;;;;1.58;0.40;;;-3.40;99.90;;;;;;4821295;29;20058;-71
2022/03/27 02:20:55;;;;;;;1.90;0.50;;;-3.30;99.90;;;;;;4820224;29;20058;-70
2022/03/27 02:23:23;;;;;;;0.68;0.50;;;-3.30;99.90;;;;;;4814720;29;20062;-70
2022/03/27 02:25:51;;;;;;;0.93;0.50;;;-3.30;99.90;;;;;;4823161;29;20067;-70
2022/03/27 02:28:18;;;;;;;1.60;0.20;;;-3.30;99.90;;;;;;4806903;29;20146;-70
2022/03/27 02:30:47;;;;;;;0.85;0.40;;;-3.40;99.90;;;;;;4821711;29;20180;-70
2022/03/27 02:33:16;;;;;;;3.95;0.50;;;-3.40;99.90;;;;;;4821096;29;20077;-71
2022/03/27 02:35:43;;;;;;;1.85;0.40;;;-3.40;99.90;;;;;;4822435;29;20042;-70
2022/03/27 02:38:12;;;;;;;1.73;0.50;;;-3.50;99.90;;;;;;4821881;29;20062;-70
2022/03/27 02:40:40;;;;;;;0.73;0.30;;;-3.60;99.90;;;;;;4820979;29;20436;-70
2022/03/27 02:43:09;;;;;;;1.08;0.40;;;-3.60;99.90;;;;;;4828625;29;20061;-70
2022/03/27 02:45:37;;;;;;;1.38;0.60;;;-3.60;99.90;;;;;;4806228;29;20050;-70
2022/03/27 02:48:07;;;;;;;0.63;0.30;;;-3.70;99.90;;;;;;4833978;29;20421;-75
2022/03/27 02:50:39;;;;;;;0.65;0.40;;;-3.70;99.90;;;;;;4821284;29;20054;-76
2022/03/27 02:53:07;;;;;;;0.70;0.40;;;-3.80;99.90;;;;;;4821650;29;20126;-75
2022/03/27 02:55:34;;;;;;;0.95;0.63;;;-3.80;99.90;;;;;;4821507;29;20303;-74
2022/03/27 02:58:02;;;;;;;1.00;0.50;;;-3.80;99.90;;;;;;4805578;29;20078;-75
2022/03/27 03:00:30;;;;;;;5.05;0.40;;;-3.90;99.90;;;;;;4822377;29;20053;-75
2022/03/27 03:02:57;;;;;;;0.30;0.30;;;-3.90;99.90;;;;;;4820721;29;20050;-76
2022/03/27 03:05:27;;;;;;;0.52;0.52;;;-3.90;99.90;;;;;;4804924;29;20042;-74
2022/03/27 03:07:55;;;;;;;2.20;0.50;;;-3.90;99.90;;;;;;4815501;29;20072;-75
2022/03/27 03:10:23;;;;;;;0.57;0.43;;;-4.00;99.90;;;;;;4820849;29;20046;-75
2022/03/27 03:12:51;;;;;;;1.25;0.22;;;-4.00;99.90;;;;;;4821682;29;20412;-75
2022/03/27 03:15:18;;;;;;;2.55;0.60;;;-4.00;99.90;;;;;;4833632;29;20405;-72
2022/03/27 03:17:46;;;;;;;1.58;0.65;;;-4.00;99.90;;;;;;4822168;29;20061;-72
2022/03/27 03:20:14;;;;;;;0.25;0.20;;;-4.10;99.90;;;;;;4821332;29;20050;-71
2022/03/27 03:22:44;;;;;;;0.50;0.50;;;-4.10;99.90;;;;;;4836369;29;20409;-70
2022/03/27 03:25:11;;;;;;;0.60;0.40;;;-4.10;99.90;;;;;;4819744;29;20126;-70
2022/03/27 03:27:41;;;;;;;0.30;0.30;;;-4.10;99.90;;;;;;4823412;29;20119;-71
2022/03/27 03:30:10;;;;;;;0.57;0.43;;;;;;;;;;4820812;29;20153;-71
2022/03/27 03:32:38;;;;;;;0.30;0.30;;;-4.10;99.90;;;;;;4822203;29;20112;-71
2022/03/27 03:35:06;;;;;;;0.45;0.38;;;-4.10;99.90;;;;;;4819950;29;20046;-70
2022/03/27 03:37:34;;;;;;;0.98;0.45;;;-4.10;99.90;;;;;;4821094;29;20149;-70
2022/03/27 03:40:03;;;;;;;1.05;0.40;;;-4.10;99.90;;;;;;4805483;29;20118;-70
2022/03/27 03:42:31;;;;;;;2.28;0.50;;;-4.20;99.90;;;;;;4817534;29;20053;-71
2022/03/27 03:44:59;;;;;;;0.50;0.43;;;-4.20;99.90;;;;;;4804929;29;20097;-72
2022/03/27 03:47:26;;;;;;;0.77;0.40;;;-4.20;99.90;;;;;;4820394;29;20050;-71
2022/03/27 03:49:54;;;;;;;0.25;0.20;;;-4.20;99.90;;;;;;4805306;29;20436;-69
2022/03/27 03:52:21;;;;;;;0.57;0.38;;;-4.20;99.90;;;;;;4821052;29;20092;-70
2022/03/27 03:54:49;;;;;;;0.28;0.22;;;-4.20;99.90;;;;;;4820356;29;20430;-71
2022/03/27 03:57:18;;;;;;;0.70;0.60;;;-4.20;99.90;;;;;;4821825;29;20054;-70
2022/03/27 03:59:45;;;;;;;1.85;0.40;;;-4.20;99.90;;;;;;4820846;29;20068;-71
2022/03/27 04:02:14;;;;;;;0.82;0.38;;;-4.30;99.90;;;;;;4810225;29;20070;-71
2022/03/27 04:04:41;;;;;;;0.43;0.30;;;-4.30;99.90;;;;;;4821534;29;20133;-71
2022/03/27 04:07:09;;;;;;;0.73;0.30;;;-4.30;99.90;;;;;;4819906;29;20127;-71
2022/03/27 04:09:37;;;;;;;1.35;0.80;;;-4.30;99.90;;;;;;4818569;29;20551;-76
2022/03/27 04:12:06;;;;;;;0.40;0.40;;;-4.30;99.90;;;;;;4820688;29;20094;-76
2022/03/27 04:14:36;;;;;;;0.90;0.40;;;-4.30;99.90;;;;;;4823400;29;20054;-75
2022/03/27 04:17:04;;;;;;;1.35;0.17;;;-4.40;99.90;;;;;;4819516;29;20062;-75
2022/03/27 04:19:32;;;;;;;2.72;0.50;;;-4.40;99.90;;;;;;4813303;29;20532;-75
2022/03/27 04:21:59;;;;;;;1.73;0.45;;;-4.40;99.90;;;;;;4819455;29;20054;-75
2022/03/27 04:24:27;;;;;;;5.75;0.60;;;-4.40;99.90;;;;;;4821828;29;20047;-72
2022/03/27 04:26:55;;;;;;;1.88;0.50;;;-4.40;99.90;;;;;;4821612;29;20078;-70
2022/03/27 04:29:22;;;;;;;3.50;0.40;;;-4.30;99.90;;;;;;4818424;29;20046;-70
2022/03/27 04:31:52;;;;;;;0.45;0.40;;;-4.40;99.90;;;;;;4805637;29;20050;-71
2022/03/27 04:34:20;;;;;;;0.50;0.30;;;-4.30;99.90;;;;;;4795986;29;20082;-71
2022/03/27 04:36:47;;;;;;;0.70;0.45;;;-4.40;99.90;;;;;;4818849;29;20057;-71
2022/03/27 04:39:15;;;;;;;0.93;0.43;;;-4.30;99.90;;;;;;4815758;29;20500;-70
2022/03/27 04:41:44;;;;;;;0.63;0.40;;;-4.30;99.90;;;;;;4835825;29;20584;-71
2022/03/27 04:44:11;;;;;;;1.02;0.38;;;-4.30;99.90;;;;;;4835073;29;20053;-71
2022/03/27 04:46:39;;;;;;;2.20;0.57;;;-4.30;99.90;;;;;;4811571;29;20101;-75
2022/03/27 04:49:09;;;;;;;0.20;0.20;;;-4.30;99.90;;;;;;4803818;29;20051;-74
2022/03/27 04:51:37;;;;;;;0.93;0.30;;;-4.30;99.90;;;;;;4820683;29;20062;-75
2022/03/27 04:54:05;;;;;;;0.95;0.28;;;-4.30;99.90;;;;;;4819569;29;20054;-74
2022/03/27 04:56:33;;;;;;;5.90;0.70;;;-4.30;99.90;;;;;;4822647;29;20057;-75
2022/03/27 04:59:00;;;;;;;0.57;0.35;;;-4.30;99.90;;;;;;4836763;29;20432;-75
2022/03/27 05:01:28;;;;;;;0.88;0.30;;;-4.30;99.90;;;;;;4823789;29;20533;-77
2022/03/27 05:03:58;;;;;;;0.52;0.40;;;-4.30;99.90;;;;;;4819349;29;20066;-74
2022/03/27 05:06:29;;;;;;;1.08;0.40;;;-4.30;99.90;;;;;;4798775;29;20416;-70
2022/03/27 05:08:58;;;;;;;0.70;0.50;;;-4.30;99.90;;;;;;4838174;29;20432;-69
2022/03/27 05:11:28;;;;;;;0.77;0.40;;;-4.30;99.90;;;;;;4824183;29;20074;-71
2022/03/27 05:13:55;;;;;;;1.10;0.70;;;-4.20;99.90;;;;;;4815452;29;20058;-69
2022/03/27 05:16:26;;;;;;;0.70;0.50;;;-4.20;99.90;;;;;;4817337;29;20078;-71
2022/03/27 05:19:14;;;;;;;2.10;0.68;;;-4.20;99.90;;;;;;4838033;29;20065;-71
2022/03/27 05:21:43;;;;;;;1.83;0.30;;;-4.10;99.90;;;;;;4834721;29;20547;-70
2022/03/27 05:24:16;;;;;;;1.80;0.50;;;-4.10;99.90;;;;;;4818184;29;20467;-76
2022/03/27 05:26:47;;;;;;;3.97;0.40;;;-4.10;99.90;;;;;;4816111;29;20057;-71
2022/03/27 05:29:17;;;;;;;1.83;0.32;;;-4.10;99.90;;;;;;4828824;29;20054;-71
2022/03/27 05:31:45;;;;;;;1.10;0.43;;;-4.10;99.90;;;;;;4813642;29;20064;-72
2022/03/27 05:34:12;;;;;;;0.98;0.60;;;-4.10;99.90;;;;;;4812138;29;20459;-72
2022/03/27 05:36:42;;;;;;;1.58;0.20;;;-4.00;99.90;;;;;;4810882;29;20593;-72
2022/03/27 05:39:10;;;;;;;0.85;0.30;;;-4.00;99.90;;;;;;4790137;29;20058;-72
2022/03/27 05:41:37;;;;;;;2.78;0.77;;;-4.00;99.90;;;;;;4826940;29;20065;-72
2022/03/27 05:44:06;;;;;;;1.15;1.05;;;-4.00;99.90;;;;;;4823150;29;20054;-72
2022/03/27 05:46:34;;;;;;;0.32;0.30;;;-4.00;99.90;;;;;;4825933;29;20471;-71
2022/03/27 05:49:03;;;;;;;0.85;0.82;;;-4.00;99.90;;;;;;4823785;29;20058;-72
2022/03/27 05:51:31;;;;;;;2.50;0.68;;;-3.90;98.80;;;;;;4811810;29;20054;-76
2022/03/27 05:54:00;;;;;;;0.32;0.25;;;-3.90;98.90;;;;;;4823155;29;20054;-76
2022/03/27 05:56:27;;;;;;;2.40;0.60;;;-3.90;97.50;;;;;;4822035;29;20086;-75
2022/03/27 05:58:55;;;;;;;0.68;0.40;;;-3.90;97.30;;;;;;4820834;29;20415;-72
2022/03/27 06:01:22;;;;;;;1.85;0.35;;;-3.90;94.40;;;;;;4828286;29;20054;-71
2022/03/27 06:03:50;;;;;;;1.88;0.30;;;-3.90;95.20;;;;;;4822189;29;20136;-71
2022/03/27 06:06:17;;;;;;;3.67;0.30;;;-3.90;95.60;;;;;;4836150;29;20638;-70
2022/03/27 06:08:44;;;;;;;1.67;0.55;;;-3.80;94.50;;;;;;4804527;29;20162;-72
2022/03/27 06:11:14;;;;;;;1.75;0.85;;;-3.70;95.20;;;;;;4823490;29;20097;-71
2022/03/27 06:13:41;;;;;;;0.88;0.65;;;-3.70;95.00;;;;;;4823761;29;20500;-72
2022/03/27 06:16:09;;;;;;;1.23;0.40;;;-3.60;94.80;;;;;;4818347;29;20393;-71
2022/03/27 06:18:36;;;;;;;1.77;1.17;;;-3.50;94.00;;;;;;4819986;29;20050;-72
2022/03/27 06:21:05;;;;;;;1.50;0.40;;;-3.50;92.30;;;;;;4821982;29;20110;-69
2022/03/27 06:23:33;;;;;;;1.55;0.57;;;-3.20;92.70;;;;;;4822872;29;20058;-72
2022/03/27 06:26:00;;;;;;;1.60;0.45;;;-2.40;91.60;;;;;;4823237;29;20240;-75
2022/03/27 06:28:29;;;;;;;1.92;0.50;;;-1.30;87.50;;;;;;4807796;29;20046;-76
2022/03/27 06:30:57;;;;;;;2.63;0.70;;;-0.30;81.60;;;;;;4837834;29;20050;-77
2022/03/27 06:33:24;;;;;;;0.80;0.50;;;0.60;76.50;;;;;;4824570;29;20527;-71
2022/03/27 06:35:52;;;;;;;0.88;0.40;;;1.30;71.50;;;;;;4825145;29;20389;-71
2022/03/27 06:38:21;;;;;;;4.03;1.40;;;1.80;67.60;;;;;;4805875;29;20474;-71
2022/03/27 06:40:48;;;;;;;5.47;0.50;;;2.30;65.60;;;;;;4806210;29;20126;-71
2022/03/27 06:43:16;;;;;;;2.10;0.60;;;2.60;62.90;;;;;;4837150;29;20091;-76
2022/03/27 06:45:45;;;;;;;3.10;0.57;;;3.00;60.90;;;;;;4814907;29;20073;-73
2022/03/27 06:48:12;;;;;;;0.45;0.45;;;3.20;58.90;;;;;;4816644;29;20405;-73
2022/03/27 06:50:40;;;;;;;0.65;0.20;;;3.50;58.30;;;;;;4822761;29;20070;-80
2022/03/27 06:53:10;;;;;;;2.03;0.40;;;3.90;57.00;;;;;;4819272;29;20093;-78
2022/03/27 06:55:40;;;;;;;0.85;0.77;;;4.30;56.50;;;;;;4813379;29;20065;-78
2022/03/27 06:58:50;;;;;;;3.13;0.65;;;4.60;55.80;;;;;;4811685;29;20058;-79
2022/03/27 07:04:39;;;;;;;5.75;0.77;;;5.30;54.90;;;;;;4812836;29;20198;-76
2022/03/27 07:07:24;;;;;;;2.63;0.63;;;5.50;54.80;;;;;;4814043;29;20057;-77
2022/03/27 07:10:01;;;;;;;2.17;0.43;;;5.90;52.80;;;;;;4836016;29;20042;-72
2022/03/27 07:12:52;;;;;;;1.33;0.50;;;6.00;51.20;;;;;;4820724;29;20034;-73
2022/03/27 07:15:38;;;;;;;4.05;0.43;;;5.90;51.40;;;;;;4812327;29;20078;-78
2022/03/27 07:18:07;;;;;;;2.47;0.73;;;6.10;52.60;;;;;;4817061;29;20106;-73
2022/03/27 07:20:50;;;;;;;2.80;0.90;;;6.50;50.30;;;;;;4818868;29;20050;-73
2022/03/27 07:23:32;;;;;;;7.22;0.73;;;6.90;51.00;;;;;;4806207;29;20061;-79
2022/03/27 07:26:00;;;;;;;4.47;1.23;;;7.20;49.60;;;;;;4822142;29;20062;-74
2022/03/27 07:28:31;;;;;;;1.15;0.60;;;7.60;48.30;;;;;;4803069;29;20165;-71
2022/03/27 07:31:00;;;;;;;1.85;0.65;;;8.00;47.60;;;;;;4805441;29;20516;-80
2022/03/27 07:33:29;;;;;;;3.00;0.82;;;8.40;47.40;;;;;;4808322;29;20535;-78
2022/03/27 07:35:57;;;;;;;1.63;0.80;;;8.80;46.70;;;;;;4815110;29;20551;-80
2022/03/27 07:38:25;;;;;;;2.15;0.95;;;9.30;45.70;;;;;;4820446;29;20416;-79
2022/03/27 07:40:54;;;;;;;0.80;0.70;;;9.30;44.40;;;;;;4810665;29;20049;-78
2022/03/27 07:43:22;;;;;;;2.03;0.70;;;9.20;43.60;;;;;;4809408;29;20062;-78
2022/03/27 07:46:39;;;;;;;1.65;0.57;;;9.40;43.90;;;;;;4821256;29;20476;-79
2022/03/27 07:49:10;;;;;;;9.20;0.80;;;9.40;42.60;;;;;;4813303;29;20152;-71
2022/03/27 07:51:38;;;;;;;1.02;0.75;;;9.60;43.90;;;;;;4820055;29;20058;-72
2022/03/27 07:54:11;;;;;;;1.55;0.68;;;10.10;43.90;;;;;;4836254;29;20612;-81
2022/03/27 07:56:39;;;;;;;0.45;0.43;;;10.50;42.60;;;;;;4815455;29;20377;-73
2022/03/27 07:59:07;;;;;;;0.63;0.60;;;10.70;41.20;;;;;;4812021;29;20164;-72
2022/03/27 08:01:35;;;;;;;3.17;0.60;;;10.60;40.10;;;;;;4814917;29;20054;-72
2022/03/27 08:04:05;;;;;;;1.38;0.77;;;10.40;40.60;;;;;;4818590;29;20438;-72
2022/03/27 08:06:36;;;;;;;0.98;0.55;;;10.30;39.80;;;;;;4820512;29;20062;-71
2022/03/27 08:09:07;;;;;;;0.85;0.50;;;10.10;39.80;;;;;;4816089;29;20646;-72
2022/03/27 08:11:41;;;;;;;2.03;0.73;;;10.00;40.00;;;;;;4804605;29;20066;-73
2022/03/27 08:14:09;;;;;;;2.10;0.82;;;10.40;40.10;;;;;;4821638;29;20060;-72
2022/03/27 08:16:37;;;;;;;1.48;0.82;;;11.00;39.70;;;;;;4820667;29;20062;-72
2022/03/27 08:19:06;;;;;;;1.48;0.90;;;11.30;39.20;;;;;;4821032;29;20058;-72
2022/03/27 08:21:35;;;;;;;1.63;1.40;;;11.70;37.90;;;;;;4819737;29;20061;-79
2022/03/27 08:24:03;;;;;;;3.00;0.75;;;12.20;38.50;;;;;;4814818;29;20050;-79
2022/03/27 08:29:16;;;;;;;4.18;1.10;;;12.90;37.00;;;;;;4809775;29;20420;-79
2022/03/27 08:31:43;;;;;;;1.67;0.70;;;13.00;36.10;;;;;;4816624;29;20531;-78
2022/03/27 08:34:13;;;;;;;1.08;0.60;;;13.20;34.90;;;;;;4816603;29;20062;-77
2022/03/27 08:36:42;;;;;;;1.42;1.02;;;13.30;35.10;;;;;;4813259;29;20064;-77
2022/03/27 08:39:12;;;;;;;1.02;0.70;;;13.70;34.90;;;;;;4820128;29;20420;-79
2022/03/27 08:41:46;;;;;;;2.80;0.88;;;14.00;35.00;;;;;;4807942;29;20058;-76
2022/03/27 08:44:18;;;;;;;0.93;0.68;;;14.50;34.40;;;;;;4822124;29;20061;-77
2022/03/27 08:46:48;;;;;;;2.58;0.70;;;14.80;33.40;;;;;;4823136;29;20058;-80
2022/03/27 08:49:40;;;;;;;4.00;1.10;;;15.20;33.20;;;;;;4824848;29;20054;-81
2022/03/27 08:52:34;;;;;;;4.25;1.08;;;15.30;33.30;;;;;;4838047;29;20114;-72
2022/03/27 08:55:07;;;;;;;1.17;0.90;;;15.20;32.90;;;;;;4821780;29;20161;-70
2022/03/27 08:57:56;;;;;;;0.75;0.60;;;15.00;32.50;;;;;;4822424;29;20472;-72
2022/03/27 09:00:41;;;;;;;2.83;0.98;;;15.10;31.80;;;;;;4823116;29;20114;-71
2022/03/27 09:03:10;;;;;;;2.28;0.70;;;15.00;32.90;;;;;;4827250;29;20064;-72
2022/03/27 09:05:40;;;;;;;2.65;0.60;;;14.90;32.30;;;;;;4834912;29;20508;-70
2022/03/27 09:08:12;;;;;;;1.10;0.70;;;14.80;31.80;;;;;;4820782;29;20500;-70
2022/03/27 09:10:41;;;;;;;4.87;1.93;;;14.80;33.10;;;;;;4822255;29;20058;-77
2022/03/27 09:13:12;;;;;;;1.00;0.73;;;14.80;32.50;;;;;;4818950;29;20062;-79
2022/03/27 09:15:40;;;;;;;1.38;1.00;;;14.90;31.70;;;;;;4804767;29;20614;-79
2022/03/27 09:18:09;;;;;;;1.10;0.80;;;15.20;32.00;;;;;;4820056;29;20051;-77
2022/03/27 09:20:43;;;;;;;1.30;0.47;;;15.30;30.90;;;;;;4821203;29;20657;-78
2022/03/27 09:23:21;;;;;;;2.15;0.60;;;15.20;31.30;;;;;;4820566;29;20145;-75
2022/03/27 09:25:56;;;;;;;2.17;0.52;;;15.50;31.60;;;;;;4817472;29;20054;-79
2022/03/27 09:28:32;;;;;;;1.50;0.50;;;15.50;31.30;;;;;;4820267;29;20489;-74
2022/03/27 09:31:36;;;;;;;5.13;0.85;;;15.80;31.10;;;;;;4818569;29;20050;-74
2022/03/27 09:34:07;;;;;;;2.33;1.00;;;16.00;31.00;;;;;;4819913;29;20427;-80
2022/03/27 09:37:34;;;;;;;1.52;0.70;;;16.10;30.50;;;;;;4836822;29;20091;-78
2022/03/27 09:40:10;;;;;;;2.95;0.65;;;16.20;30.40;;;;;;4807340;29;20587;-73
2022/03/27 09:42:42;;;;;;;3.63;1.00;;;16.10;30.30;;;;;;4820488;29;20065;-82
2022/03/27 09:45:13;;;;;;;3.50;0.70;;;15.80;30.70;;;;;;4816698;29;20043;-79
2022/03/27 09:48:01;;;;;;;2.33;1.02;;;15.70;30.00;;;;;;4817603;29;20153;-78
2022/03/27 09:50:35;;;;;;;1.45;0.68;;;15.30;30.60;;;;;;4819163;29;20061;-73
2022/03/27 09:53:28;;;;;;;3.38;0.65;;;14.50;30.50;;;;;;4818242;29;20051;-79
2022/03/27 09:58:50;;;;;;;4.10;0.93;;;13.80;31.20;;;;;;5071031;27;20418;-79
2022/03/27 10:01:22;;;;;;;2.75;0.90;;;12.10;32.90;;;;;;5068872;28;20052;-72
2022/03/27 10:04:02;;;;;;;0.82;0.70;;;12.10;34.20;;;;;;5049903;28;20048;-71
2022/03/27 10:06:37;;;;;;;4.97;0.80;;;12.30;32.90;;;;;;5046000;28;20123;-73
2022/03/27 10:09:07;;;;;;;0.73;0.50;;;13.00;33.20;;;;;;5047218;28;20049;-80
2022/03/27 10:11:37;;;;;;;1.13;0.75;;;13.60;31.90;;;;;;5034814;28;20513;-78
2022/03/27 10:14:08;;;;;;;1.17;0.40;;;13.90;31.20;;;;;;5042909;28;20052;-78
2022/03/27 10:16:38;;;;;;;1.60;0.88;;;14.10;30.90;;;;;;5043258;28;20103;-78
2022/03/27 10:19:10;;;;;;;2.13;0.63;;;14.40;31.20;;;;;;5037123;28;20049;-84
2022/03/27 10:21:38;;;;;;;2.20;0.65;;;15.10;31.30;;;;;;5037989;28;20057;-71
2022/03/27 10:24:14;;;;;;;3.05;1.00;;;15.40;30.30;;;;;;5027101;28;20472;-74
2022/03/27 10:26:43;;;;;;;1.50;0.70;;;15.70;30.00;;;;;;5045013;28;20053;-74
2022/03/27 10:29:14;;;;;;;3.92;0.57;;;15.80;30.00;;;;;;5027849;28;20595;-71
2022/03/27 10:31:45;;;;;;;1.45;0.50;;;16.20;29.60;;;;;;5026283;28;20516;-78
2022/03/27 10:34:14;;;;;;;0.98;0.68;;;16.30;29.00;;;;;;5040532;28;20152;-75
2022/03/27 10:36:50;;;;;;;2.97;0.60;;;16.30;29.70;;;;;;5046976;28;20057;-79
2022/03/27 10:39:25;;;;;;;0.98;0.60;;;16.00;29.80;;;;;;5044788;28;20891;-76
2022/03/27 10:42:08;;;;;;;1.33;0.68;;;15.30;30.00;;;;;;5045757;28;20064;-77
2022/03/27 10:44:43;;;;;;;0.95;0.73;;;14.50;30.80;;;;;;5045854;28;20053;-75
2022/03/27 10:47:17;;;;;;;4.45;0.70;;;13.70;31.60;;;;;;5044841;28;20360;-77
2022/03/27 10:50:24;;;;;;;1.35;0.52;;;12.80;32.40;;;;;;5017876;28;20153;-78
2022/03/27 10:53:09;;;;;;;2.03;0.68;;;12.40;34.40;;;;;;5034906;28;20172;-72
2022/03/27 10:55:40;;;;;;;1.92;0.52;;;12.50;34.20;;;;;;5038207;28;20464;-72
2022/03/27 10:58:30;;;;;;;3.50;0.60;;;12.60;34.00;;;;;;5042529;28;20158;-72
2022/03/27 11:01:02;;;;;;;1.27;0.63;;;11.70;34.10;;;;;;5035709;28;20104;-69
2022/03/27 11:03:51;;;;;;;4.13;0.70;;;11.20;34.70;;;;;;5034673;28;20509;-77
2022/03/27 11:06:28;;;;;;;3.97;1.00;;;12.10;35.40;;;;;;5040520;28;20100;-77
2022/03/27 11:08:58;;;;;;;2.90;0.70;;;12.70;35.20;;;;;;5027070;28;20100;-77
2022/03/27 11:11:53;;;;;;;5.18;1.13;;;12.90;34.90;;;;;;5022451;28;20053;-71
2022/03/27 11:14:58;;;;;;;1.30;0.57;;;13.30;34.70;;;;;;5022499;28;20470;-77
2022/03/27 11:17:37;;;;;;;3.45;1.10;;;12.80;33.50;;;;;;5010345;28;20053;-77
2022/03/27 11:20:07;;;;;;;2.78;1.00;;;12.10;34.10;;;;;;5033842;28;20057;-76
2022/03/27 11:22:51;;;;;;;1.80;0.80;;;12.50;34.80;;;;;;5026087;28;20141;-78
2022/03/27 11:25:47;;;;;;;3.72;0.80;;;12.70;34.20;;;;;;5012703;28;20089;-78
2022/03/27 11:28:17;;;;;;;4.05;0.55;;;13.00;34.10;;;;;;5022353;28;20553;-76
2022/03/27 11:31:20;;;;;;;4.30;0.90;;;13.60;33.00;;;;;;5029711;28;20045;-70
2022/03/27 11:34:21;;;;;;;4.55;0.68;;;14.10;33.20;;;;;;5025555;28;20060;-71
2022/03/27 11:37:21;;;;;;;3.00;0.90;;;15.10;32.60;;;;;;5030069;28;20071;-70
2022/03/27 11:39:53;;;;;;;2.85;1.42;;;15.70;31.20;;;;;;5017038;28;20128;-70
2022/03/27 11:42:34;;;;;;;3.20;1.10;;;16.20;30.30;;;;;;5027401;28;20298;-71
2022/03/27 11:45:20;;;;;;;1.38;0.57;;;16.60;30.30;;;;;;5021423;28;20096;-70
2022/03/27 11:47:52;;;;;;;1.38;0.95;;;17.20;29.90;;;;;;5019644;28;20053;-69
2022/03/27 11:50:26;;;;;;;5.72;0.80;;;17.50;30.20;;;;;;5025708;28;20049;-69
2022/03/27 11:52:54;;;;;;;5.03;1.15;;;17.30;29.50;;;;;;5016656;28;20414;-69
2022/03/27 11:55:22;;;;;;;2.38;1.10;;;17.00;29.70;;;;;;5011393;28;20054;-69
2022/03/27 11:57:53;;;;;;;1.85;0.60;;;16.80;29.80;;;;;;5011215;28;20064;-70
2022/03/27 12:00:35;;;;;;;2.90;0.85;;;16.40;29.70;;;;;;5030206;28;20527;-69
2022/03/27 12:03:05;;;;;;;2.45;0.60;;;16.40;30.00;;;;;;5019973;28;20065;-70
2022/03/27 12:05:40;;;;;;;1.92;0.82;;;16.10;30.20;;;;;;5030673;28;20948;-70
2022/03/27 12:08:11;;;;;;;1.15;0.70;;;16.20;29.70;;;;;;5029373;28;20425;-71
2022/03/27 12:10:44;;;;;;;1.33;0.65;;;16.50;29.70;;;;;;5031961;28;20057;-70
2022/03/27 12:13:14;;;;;;;3.40;0.80;;;16.80;29.70;;;;;;5020386;28;20056;-70
2022/03/27 12:15:49;;;;;;;2.65;0.90;;;16.70;29.20;;;;;;4994162;28;20046;-70
2022/03/27 12:18:28;;;;;;;5.10;1.45;;;15.90;29.60;;;;;;5029419;28;20528;-77
2022/03/27 12:21:03;;;;;;;2.78;0.80;;;13.70;31.10;;;;;;5030818;28;20063;-77
2022/03/27 12:23:34;;;;;;;7.68;1.38;;;11.80;32.40;;;;;;5017898;28;20145;-78
2022/03/27 12:33:23;;;;;;;3.63;0.75;;;12.50;34.60;;;;;;5009419;28;20050;-70
2022/03/27 12:36:09;;;;;;;3.53;0.75;;;12.90;32.60;;;;;;4886513;29;20088;-70
2022/03/27 12:38:37;;;;;;;2.55;0.80;;;13.10;33.50;;;;;;4917550;29;20090;-70
2022/03/27 12:41:06;;;;;;;0.63;0.63;;;13.40;32.90;;;;;;4987613;28;20053;-69
2022/03/27 12:43:33;;;;;;;3.78;1.00;;;13.60;32.50;;;;;;5031652;28;20208;-72
2022/03/27 12:46:19;;;;;;;1.02;0.73;;;13.30;33.20;;;;;;5028708;28;20037;-77
2022/03/27 12:48:59;;;;;;;9.35;1.00;;;13.00;33.20;;;;;;5016497;28;20050;-78
2022/03/27 12:51:28;;;;;;;13.00;1.95;;;13.00;33.40;;;;;;5009826;28;20407;-78
2022/03/27 12:54:13;;;;;;;3.10;1.10;;;13.50;33.90;;;;;;5026751;28;20045;-79
2022/03/27 12:56:57;;;;;;;3.38;0.82;;;14.50;32.80;;;;;;5026593;28;20510;-77
2022/03/27 12:59:25;;;;;;;6.72;1.63;;;15.30;31.80;;;;;;5029425;28;20096;-77
2022/03/27 13:01:53;;;;;;;2.85;1.20;;;16.10;30.60;;;;;;5030093;28;20064;-77
2022/03/27 13:04:20;;;;;;;5.78;0.88;;;16.70;30.10;;;;;;5029604;28;20053;-77
2022/03/27 13:06:58;;;;;;;4.25;0.90;;;16.80;29.50;;;;;;5030188;28;20048;-78
2022/03/27 13:09:27;;;;;;;8.35;1.00;;;17.40;29.00;;;;;;5029786;28;20049;-77
2022/03/27 13:11:54;;;;;;;1.02;0.80;;;17.40;29.20;;;;;;5031506;28;20464;-78
2022/03/27 13:14:23;;;;;;;1.83;0.75;;;17.40;29.00;;;;;;5027829;28;20059;-77
2022/03/27 13:16:53;;;;;;;4.20;1.20;;;17.70;29.50;;;;;;5030544;28;20077;-75
2022/03/27 13:19:23;;;;;;;3.72;0.70;;;17.90;28.90;;;;;;5030481;28;20057;-77
2022/03/27 13:21:55;;;;;;;1.48;0.80;;;17.70;28.40;;;;;;5029483;28;20049;-77
2022/03/27 13:24:24;;;;;;;5.88;1.17;;;17.40;28.70;;;;;;5022356;28;20418;-76
2022/03/27 13:26:54;;;;;;;7.13;1.25;;;17.40;29.10;;;;;;5009281;28;20050;-78
2022/03/27 13:29:28;;;;;;;3.22;0.80;;;17.50;29.20;;;;;;5012915;28;20147;-76
2022/03/27 13:31:58;;;;;;;4.13;1.10;;;17.10;28.80;;;;;;5009136;28;20049;-77